sensor_id;sensor_type;location;lat;lon;timestamp;pressure;altitude;pressure_sealevel;temperature;humidity
9764;BME280;4921;43.214;27.936;2023-07-22T00:00:30;100927.66;;;26.44;100.00
9764;BME280;4921;43.214;27.936;2023-07-22T00:02:57;100926.25;;;26.41;100.00
9764;BME280;4921;43.214;27.936;2023-07-22T00:05:24;100932.06;;;26.38;100.00
9764;BME280;4921;43.214;27.936;2023-07-22T00:07:52;100943.91;;;26.37;100.00
9764;BME280;4921;43.214;27.936;2023-07-22T00:10:19;100939.19;;;26.33;100.00
9764;BME280;4921;43.214;27.936;2023-07-22T00:12:46;100928.59;;;26.31;100.00
9764;BME280;4921;43.214;27.936;2023-07-22T00:15:13;100941.28;;;26.31;100.00
9764;BME280;4921;43.214;27.936;2023-07-22T00:17:41;100940.84;;;26.27;100.00
9764;BME280;4921;43.214;27.936;2023-07-22T00:20:09;100940.84;;;26.27;100.00
9764;BME280;4921;43.214;27.936;2023-07-22T00:22:37;100929.47;;;26.25;100.00
9764;BME280;4921;43.214;27.936;2023-07-22T00:25:09;100930.09;;;26.21;100.00
9764;BME280;4921;43.214;27.936;2023-07-22T00:27:37;100920.38;;;26.20;100.00
9764;BME280;4921;43.214;27.936;2023-07-22T00:30:05;100903.13;;;26.21;100.00
9764;BME280;4921;43.214;27.936;2023-07-22T00:32:32;100898.56;;;26.21;100.00
9764;BME280;4921;43.214;27.936;2023-07-22T00:34:59;100890.91;;;26.18;100.00
9764;BME280;4921;43.214;27.936;2023-07-22T00:37:26;100905.88;;;26.14;100.00
9764;BME280;4921;43.214;27.936;2023-07-22T00:39:53;100895.09;;;26.08;100.00
9764;BME280;4921;43.214;27.936;2023-07-22T00:42:22;100895.09;;;26.08;100.00
9764;BME280;4921;43.214;27.936;2023-07-22T00:44:49;100895.72;;;26.03;100.00
9764;BME280;4921;43.214;27.936;2023-07-22T00:47:17;100882.25;;;26.03;100.00
9764;BME280;4921;43.214;27.936;2023-07-22T00:49:46;100880.38;;;26.04;100.00
9764;BME280;4921;43.214;27.936;2023-07-22T00:52:13;100871.50;;;25.97;100.00
9764;BME280;4921;43.214;27.936;2023-07-22T00:54:42;100887.03;;;26.01;100.00
9764;BME280;4921;43.214;27.936;2023-07-22T00:57:09;100869.25;;;25.94;100.00
9764;BME280;4921;43.214;27.936;2023-07-22T00:59:39;100874.44;;;25.95;100.00
9764;BME280;4921;43.214;27.936;2023-07-22T01:02:07;100878.19;;;25.94;100.00
9764;BME280;4921;43.214;27.936;2023-07-22T01:04:35;100864.69;;;25.94;100.00
9764;BME280;4921;43.214;27.936;2023-07-22T01:07:04;100870.25;;;25.99;100.00
9764;BME280;4921;43.214;27.936;2023-07-22T01:09:36;100861.97;;;26.01;100.00
9764;BME280;4921;43.214;27.936;2023-07-22T01:12:04;100868.41;;;26.00;100.00
9764;BME280;4921;43.214;27.936;2023-07-22T01:14:32;100860.13;;;25.95;100.00
9764;BME280;4921;43.214;27.936;2023-07-22T01:17:01;100852.78;;;25.77;100.00
9764;BME280;4921;43.214;27.936;2023-07-22T01:19:29;100869.69;;;25.91;100.00
9764;BME280;4921;43.214;27.936;2023-07-22T01:21:57;100868.03;;;25.90;100.00
9764;BME280;4921;43.214;27.936;2023-07-22T01:24:26;100864.28;;;25.91;100.00
9764;BME280;4921;43.214;27.936;2023-07-22T01:26:53;100852.44;;;25.98;100.00
9764;BME280;4921;43.214;27.936;2023-07-22T01:29:21;100850.97;;;26.02;100.00
9764;BME280;4921;43.214;27.936;2023-07-22T01:31:50;100852.00;;;26.01;100.00
9764;BME280;4921;43.214;27.936;2023-07-22T01:34:17;100853.09;;;25.94;100.00
9764;BME280;4921;43.214;27.936;2023-07-22T01:36:45;100858.63;;;25.99;100.00
9764;BME280;4921;43.214;27.936;2023-07-22T01:39:13;100843.72;;;26.03;100.00
9764;BME280;4921;43.214;27.936;2023-07-22T01:41:41;100840.56;;;26.06;100.00
9764;BME280;4921;43.214;27.936;2023-07-22T01:44:08;100842.88;;;26.09;100.00
9764;BME280;4921;43.214;27.936;2023-07-22T01:46:36;100843.69;;;26.09;100.00
9764;BME280;4921;43.214;27.936;2023-07-22T01:49:06;100844.91;;;26.07;100.00
9764;BME280;4921;43.214;27.936;2023-07-22T01:51:34;100834.94;;;26.07;100.00
9764;BME280;4921;43.214;27.936;2023-07-22T01:54:03;100831.03;;;26.10;100.00
9764;BME280;4921;43.214;27.936;2023-07-22T01:56:30;100825.63;;;26.10;100.00
9764;BME280;4921;43.214;27.936;2023-07-22T01:58:58;100824.38;;;26.12;100.00
9764;BME280;4921;43.214;27.936;2023-07-22T02:01:25;100829.13;;;26.17;100.00
9764;BME280;4921;43.214;27.936;2023-07-22T02:03:53;100822.22;;;26.21;100.00
9764;BME280;4921;43.214;27.936;2023-07-22T02:06:20;100819.31;;;26.22;100.00
9764;BME280;4921;43.214;27.936;2023-07-22T02:08:48;100822.84;;;26.23;100.00
9764;BME280;4921;43.214;27.936;2023-07-22T02:11:15;100822.41;;;26.26;100.00
9764;BME280;4921;43.214;27.936;2023-07-22T02:13:41;100823.72;;;26.17;100.00
9764;BME280;4921;43.214;27.936;2023-07-22T02:16:13;100822.09;;;26.16;100.00
9764;BME280;4921;43.214;27.936;2023-07-22T02:18:42;100823.66;;;26.23;100.00
9764;BME280;4921;43.214;27.936;2023-07-22T02:21:09;100836.94;;;26.25;100.00
9764;BME280;4921;43.214;27.936;2023-07-22T02:23:36;100840.22;;;26.27;100.00
9764;BME280;4921;43.214;27.936;2023-07-22T02:26:03;100848.56;;;26.25;100.00
9764;BME280;4921;43.214;27.936;2023-07-22T02:28:30;100850.03;;;26.21;100.00
9764;BME280;4921;43.214;27.936;2023-07-22T02:31:01;100845.91;;;26.19;100.00
9764;BME280;4921;43.214;27.936;2023-07-22T02:33:31;100860.00;;;26.21;100.00
9764;BME280;4921;43.214;27.936;2023-07-22T02:35:58;100850.63;;;26.23;100.00
9764;BME280;4921;43.214;27.936;2023-07-22T02:38:24;100844.41;;;26.23;100.00
9764;BME280;4921;43.214;27.936;2023-07-22T02:40:51;100838.88;;;26.18;100.00
9764;BME280;4921;43.214;27.936;2023-07-22T02:43:19;100839.66;;;26.18;100.00
9764;BME280;4921;43.214;27.936;2023-07-22T02:45:46;100827.03;;;26.19;100.00
9764;BME280;4921;43.214;27.936;2023-07-22T02:48:13;100832.41;;;26.19;100.00
9764;BME280;4921;43.214;27.936;2023-07-22T02:50:41;100830.94;;;26.23;100.00
9764;BME280;4921;43.214;27.936;2023-07-22T02:53:08;100835.13;;;26.19;100.00
9764;BME280;4921;43.214;27.936;2023-07-22T02:55:35;100850.25;;;26.20;100.00
9764;BME280;4921;43.214;27.936;2023-07-22T02:58:02;100856.69;;;26.19;100.00
9764;BME280;4921;43.214;27.936;2023-07-22T03:00:29;100850.03;;;26.21;100.00
9764;BME280;4921;43.214;27.936;2023-07-22T03:02:57;100848.00;;;26.17;100.00
9764;BME280;4921;43.214;27.936;2023-07-22T03:05:26;100848.41;;;26.14;100.00
9764;BME280;4921;43.214;27.936;2023-07-22T03:07:56;100856.72;;;26.12;100.00
9764;BME280;4921;43.214;27.936;2023-07-22T03:10:23;100858.22;;;26.08;100.00
9764;BME280;4921;43.214;27.936;2023-07-22T03:12:51;100856.13;;;26.04;100.00
9764;BME280;4921;43.214;27.936;2023-07-22T03:15:21;100854.03;;;26.06;100.00
9764;BME280;4921;43.214;27.936;2023-07-22T03:17:48;100861.91;;;26.07;100.00
9764;BME280;4921;43.214;27.936;2023-07-22T03:20:15;100864.59;;;26.07;100.00
9764;BME280;4921;43.214;27.936;2023-07-22T03:22:44;100872.31;;;26.04;100.00
9764;BME280;4921;43.214;27.936;2023-07-22T03:25:14;100896.38;;;25.99;100.00
9764;BME280;4921;43.214;27.936;2023-07-22T03:27:43;100915.50;;;25.91;100.00
9764;BME280;4921;43.214;27.936;2023-07-22T03:30:12;100922.97;;;25.89;100.00
9764;BME280;4921;43.214;27.936;2023-07-22T03:32:41;100911.22;;;25.77;100.00
9764;BME280;4921;43.214;27.936;2023-07-22T03:35:09;100929.41;;;25.94;100.00
9764;BME280;4921;43.214;27.936;2023-07-22T03:37:36;100915.69;;;25.96;100.00
9764;BME280;4921;43.214;27.936;2023-07-22T03:40:04;100915.88;;;26.01;100.00
9764;BME280;4921;43.214;27.936;2023-07-22T03:42:38;100907.81;;;26.01;100.00
9764;BME280;4921;43.214;27.936;2023-07-22T03:45:07;100905.91;;;26.01;100.00
9764;BME280;4921;43.214;27.936;2023-07-22T03:47:35;100897.63;;;26.03;100.00
9764;BME280;4921;43.214;27.936;2023-07-22T03:50:02;100884.94;;;26.03;100.00
9764;BME280;4921;43.214;27.936;2023-07-22T03:52:29;100887.22;;;26.06;100.00
9764;BME280;4921;43.214;27.936;2023-07-22T03:54:56;100889.31;;;26.11;100.00
9764;BME280;4921;43.214;27.936;2023-07-22T03:57:25;100894.88;;;26.16;100.00
9764;BME280;4921;43.214;27.936;2023-07-22T03:59:56;100904.19;;;26.20;100.00
9764;BME280;4921;43.214;27.936;2023-07-22T04:02:25;100893.00;;;26.16;100.00
9764;BME280;4921;43.214;27.936;2023-07-22T04:04:54;100902.50;;;26.25;100.00
9764;BME280;4921;43.214;27.936;2023-07-22T04:07:22;100905.56;;;26.29;100.00
9764;BME280;4921;43.214;27.936;2023-07-22T04:09:49;100894.59;;;26.30;100.00
9764;BME280;4921;43.214;27.936;2023-07-22T04:12:16;100897.06;;;26.32;100.00
9764;BME280;4921;43.214;27.936;2023-07-22T04:14:43;100889.56;;;26.34;100.00
9764;BME280;4921;43.214;27.936;2023-07-22T04:17:12;100886.44;;;26.37;100.00
9764;BME280;4921;43.214;27.936;2023-07-22T04:19:40;100876.69;;;26.36;100.00
9764;BME280;4921;43.214;27.936;2023-07-22T04:22:08;100882.31;;;26.34;100.00
9764;BME280;4921;43.214;27.936;2023-07-22T04:24:35;100873.75;;;26.37;100.00
9764;BME280;4921;43.214;27.936;2023-07-22T04:27:02;100882.03;;;26.42;100.00
9764;BME280;4921;43.214;27.936;2023-07-22T04:29:29;100875.38;;;26.45;100.00
9764;BME280;4921;43.214;27.936;2023-07-22T04:31:57;100881.59;;;26.45;100.00
9764;BME280;4921;43.214;27.936;2023-07-22T04:34:28;100885.13;;;26.46;100.00
9764;BME280;4921;43.214;27.936;2023-07-22T04:36:55;100875.38;;;26.45;100.00
9764;BME280;4921;43.214;27.936;2023-07-22T04:39:23;100866.25;;;26.46;100.00
9764;BME280;4921;43.214;27.936;2023-07-22T04:41:50;100869.34;;;26.50;100.00
9764;BME280;4921;43.214;27.936;2023-07-22T04:44:17;100867.50;;;26.43;100.00
9764;BME280;4921;43.214;27.936;2023-07-22T04:46:44;100879.25;;;26.56;100.00
9764;BME280;4921;43.214;27.936;2023-07-22T04:49:11;100883.97;;;26.60;100.00
9764;BME280;4921;43.214;27.936;2023-07-22T04:51:40;100886.84;;;26.65;100.00
9764;BME280;4921;43.214;27.936;2023-07-22T04:54:07;100887.47;;;26.67;100.00
9764;BME280;4921;43.214;27.936;2023-07-22T04:56:34;100893.47;;;26.69;100.00
9764;BME280;4921;43.214;27.936;2023-07-22T04:59:01;100891.78;;;26.75;100.00
9764;BME280;4921;43.214;27.936;2023-07-22T05:01:28;100892.97;;;26.79;100.00
9764;BME280;4921;43.214;27.936;2023-07-22T05:03:55;100896.88;;;26.83;100.00
9764;BME280;4921;43.214;27.936;2023-07-22T05:06:23;100893.16;;;26.84;100.00
9764;BME280;4921;43.214;27.936;2023-07-22T05:08:52;100896.75;;;26.78;100.00
9764;BME280;4921;43.214;27.936;2023-07-22T05:11:19;100902.69;;;26.86;100.00
9764;BME280;4921;43.214;27.936;2023-07-22T05:13:45;100899.09;;;26.92;100.00
9764;BME280;4921;43.214;27.936;2023-07-22T05:16:13;100896.44;;;26.86;100.00
9764;BME280;4921;43.214;27.936;2023-07-22T05:18:39;100893.94;;;26.91;100.00
9764;BME280;4921;43.214;27.936;2023-07-22T05:21:06;100902.75;;;26.98;100.00
9764;BME280;4921;43.214;27.936;2023-07-22T05:23:34;100905.94;;;26.95;100.00
9764;BME280;4921;43.214;27.936;2023-07-22T05:26:02;100904.25;;;26.94;100.00
9764;BME280;4921;43.214;27.936;2023-07-22T05:28:29;100900.84;;;27.05;100.00
9764;BME280;4921;43.214;27.936;2023-07-22T05:30:56;100892.06;;;27.09;100.00
9764;BME280;4921;43.214;27.936;2023-07-22T05:33:24;100896.38;;;27.17;100.00
9764;BME280;4921;43.214;27.936;2023-07-22T05:35:51;100885.09;;;27.20;100.00
9764;BME280;4921;43.214;27.936;2023-07-22T05:38:18;100878.00;;;27.26;100.00
9764;BME280;4921;43.214;27.936;2023-07-22T05:40:45;100885.88;;;27.27;100.00
9764;BME280;4921;43.214;27.936;2023-07-22T05:43:13;100883.09;;;27.34;100.00
9764;BME280;4921;43.214;27.936;2023-07-22T05:45:40;100885.59;;;27.35;100.00
9764;BME280;4921;43.214;27.936;2023-07-22T05:48:07;100883.06;;;27.40;100.00
9764;BME280;4921;43.214;27.936;2023-07-22T05:50:34;100877.66;;;27.40;100.00
9764;BME280;4921;43.214;27.936;2023-07-22T05:53:02;100883.72;;;27.36;100.00
9764;BME280;4921;43.214;27.936;2023-07-22T05:55:29;100880.34;;;27.40;100.00
9764;BME280;4921;43.214;27.936;2023-07-22T05:57:56;100866.06;;;27.15;100.00
9764;BME280;4921;43.214;27.936;2023-07-22T06:00:26;100877.09;;;27.32;100.00
9764;BME280;4921;43.214;27.936;2023-07-22T06:02:53;100873.34;;;26.90;100.00
9764;BME280;4921;43.214;27.936;2023-07-22T06:05:20;100876.53;;;27.05;100.00
9764;BME280;4921;43.214;27.936;2023-07-22T06:07:47;100870.56;;;27.21;100.00
9764;BME280;4921;43.214;27.936;2023-07-22T06:10:14;100869.44;;;27.29;100.00
9764;BME280;4921;43.214;27.936;2023-07-22T06:12:41;100851.06;;;27.37;100.00
9764;BME280;4921;43.214;27.936;2023-07-22T06:15:09;100848.97;;;27.39;100.00
9764;BME280;4921;43.214;27.936;2023-07-22T06:17:37;100843.47;;;27.28;100.00
9764;BME280;4921;43.214;27.936;2023-07-22T06:20:05;100829.88;;;27.16;100.00
9764;BME280;4921;43.214;27.936;2023-07-22T06:22:32;100823.53;;;27.10;100.00
9764;BME280;4921;43.214;27.936;2023-07-22T06:24:59;100827.09;;;27.04;100.00
9764;BME280;4921;43.214;27.936;2023-07-22T06:27:26;100836.06;;;27.23;100.00
9764;BME280;4921;43.214;27.936;2023-07-22T06:29:53;100840.09;;;27.32;100.00
9764;BME280;4921;43.214;27.936;2023-07-22T06:32:20;100838.31;;;27.44;100.00
9764;BME280;4921;43.214;27.936;2023-07-22T06:34:51;100829.69;;;27.54;100.00
9764;BME280;4921;43.214;27.936;2023-07-22T06:37:18;100832.31;;;27.42;100.00
9764;BME280;4921;43.214;27.936;2023-07-22T06:39:45;100829.28;;;27.50;100.00
9764;BME280;4921;43.214;27.936;2023-07-22T06:42:12;100838.22;;;27.51;100.00
9764;BME280;4921;43.214;27.936;2023-07-22T06:44:39;100840.94;;;27.51;100.00
9764;BME280;4921;43.214;27.936;2023-07-22T06:47:06;100837.31;;;27.57;100.00
9764;BME280;4921;43.214;27.936;2023-07-22T06:49:33;100835.38;;;27.64;100.00
9764;BME280;4921;43.214;27.936;2023-07-22T06:52:02;100837.97;;;27.70;100.00
9764;BME280;4921;43.214;27.936;2023-07-22T06:54:29;100837.00;;;27.65;100.00
9764;BME280;4921;43.214;27.936;2023-07-22T06:56:56;100851.91;;;27.56;100.00
9764;BME280;4921;43.214;27.936;2023-07-22T06:59:23;100850.16;;;27.61;100.00
9764;BME280;4921;43.214;27.936;2023-07-22T07:01:51;100847.38;;;27.68;100.00
9764;BME280;4921;43.214;27.936;2023-07-22T07:04:18;100849.63;;;27.71;100.00
9764;BME280;4921;43.214;27.936;2023-07-22T07:06:46;100848.22;;;27.80;100.00
9764;BME280;4921;43.214;27.936;2023-07-22T07:09:15;100846.88;;;27.89;100.00
9764;BME280;4921;43.214;27.936;2023-07-22T07:11:42;100841.53;;;27.82;100.00
9764;BME280;4921;43.214;27.936;2023-07-22T07:14:29;100852.16;;;27.84;100.00
9764;BME280;4921;43.214;27.936;2023-07-22T07:17:07;100856.63;;;27.90;100.00
9764;BME280;4921;43.214;27.936;2023-07-22T07:19:34;100845.41;;;27.75;100.00
9764;BME280;4921;43.214;27.936;2023-07-22T07:22:00;100845.50;;;27.68;100.00
9764;BME280;4921;43.214;27.936;2023-07-22T07:24:29;100852.59;;;27.81;100.00
9764;BME280;4921;43.214;27.936;2023-07-22T07:26:56;100843.47;;;27.64;100.00
9764;BME280;4921;43.214;27.936;2023-07-22T07:29:23;100829.31;;;27.32;100.00
9764;BME280;4921;43.214;27.936;2023-07-22T07:31:50;100841.28;;;27.54;100.00
9764;BME280;4921;43.214;27.936;2023-07-22T07:34:17;100836.22;;;27.46;100.00
9764;BME280;4921;43.214;27.936;2023-07-22T07:36:43;100848.88;;;27.46;100.00
9764;BME280;4921;43.214;27.936;2023-07-22T07:39:11;100851.34;;;27.29;100.00
9764;BME280;4921;43.214;27.936;2023-07-22T07:41:39;100853.97;;;27.17;100.00
9764;BME280;4921;43.214;27.936;2023-07-22T07:44:06;100842.56;;;26.97;100.00
9764;BME280;4921;43.214;27.936;2023-07-22T07:46:33;100853.13;;;26.99;100.00
9764;BME280;4921;43.214;27.936;2023-07-22T07:49:01;100849.63;;;27.16;100.00
9764;BME280;4921;43.214;27.936;2023-07-22T07:51:29;100842.81;;;27.32;100.00
9764;BME280;4921;43.214;27.936;2023-07-22T07:53:58;100836.44;;;27.45;100.00
9764;BME280;4921;43.214;27.936;2023-07-22T07:56:25;100824.50;;;27.34;100.00
9764;BME280;4921;43.214;27.936;2023-07-22T07:58:54;100803.72;;;27.16;100.00
9764;BME280;4921;43.214;27.936;2023-07-22T08:01:21;100824.06;;;27.37;100.00
9764;BME280;4921;43.214;27.936;2023-07-22T08:03:48;100829.63;;;27.42;100.00
9764;BME280;4921;43.214;27.936;2023-07-22T08:06:15;100821.94;;;27.57;100.00
9764;BME280;4921;43.214;27.936;2023-07-22T08:08:42;100828.13;;;27.76;100.00
9764;BME280;4921;43.214;27.936;2023-07-22T08:11:11;100816.88;;;27.61;100.00
9764;BME280;4921;43.214;27.936;2023-07-22T08:13:39;100829.13;;;27.63;100.00
9764;BME280;4921;43.214;27.936;2023-07-22T08:16:09;100822.25;;;27.79;100.00
9764;BME280;4921;43.214;27.936;2023-07-22T08:18:36;100814.50;;;27.53;100.00
9764;BME280;4921;43.214;27.936;2023-07-22T08:21:05;100819.13;;;27.82;100.00
9764;BME280;4921;43.214;27.936;2023-07-22T08:23:33;100827.22;;;27.82;100.00
9764;BME280;4921;43.214;27.936;2023-07-22T08:26:00;100823.28;;;27.66;100.00
9764;BME280;4921;43.214;27.936;2023-07-22T08:28:29;100823.78;;;27.45;100.00
9764;BME280;4921;43.214;27.936;2023-07-22T08:30:57;100818.06;;;27.65;100.00
9764;BME280;4921;43.214;27.936;2023-07-22T08:33:27;100818.13;;;27.76;100.00
9764;BME280;4921;43.214;27.936;2023-07-22T08:35:54;100821.00;;;27.81;100.00
9764;BME280;4921;43.214;27.936;2023-07-22T08:38:22;100813.31;;;27.78;100.00
9764;BME280;4921;43.214;27.936;2023-07-22T08:40:49;100803.16;;;27.92;100.00
9764;BME280;4921;43.214;27.936;2023-07-22T08:43:19;100810.19;;;27.93;100.00
9764;BME280;4921;43.214;27.936;2023-07-22T08:45:47;100822.50;;;28.07;100.00
9764;BME280;4921;43.214;27.936;2023-07-22T08:48:17;100817.91;;;27.78;100.00
9764;BME280;4921;43.214;27.936;2023-07-22T08:50:51;100825.47;;;27.87;100.00
9764;BME280;4921;43.214;27.936;2023-07-22T08:53:19;100821.59;;;27.83;100.00
9764;BME280;4921;43.214;27.936;2023-07-22T08:55:46;100824.31;;;27.95;100.00
9764;BME280;4921;43.214;27.936;2023-07-22T08:58:24;100828.28;;;28.11;100.00
9764;BME280;4921;43.214;27.936;2023-07-22T09:00:52;100818.91;;;28.25;100.00
9764;BME280;4921;43.214;27.936;2023-07-22T09:03:19;100817.34;;;28.06;100.00
9764;BME280;4921;43.214;27.936;2023-07-22T09:05:48;100820.03;;;28.06;100.00
9764;BME280;4921;43.214;27.936;2023-07-22T09:08:16;100817.44;;;27.81;100.00
9764;BME280;4921;43.214;27.936;2023-07-22T09:10:43;100806.88;;;27.79;100.00
9764;BME280;4921;43.214;27.936;2023-07-22T09:13:13;100808.00;;;28.02;100.00
9764;BME280;4921;43.214;27.936;2023-07-22T09:15:40;100804.75;;;28.11;100.00
9764;BME280;4921;43.214;27.936;2023-07-22T09:18:07;100808.53;;;28.22;100.00
9764;BME280;4921;43.214;27.936;2023-07-22T09:20:34;100809.63;;;28.32;100.00
9764;BME280;4921;43.214;27.936;2023-07-22T09:23:03;100800.19;;;28.23;100.00
9764;BME280;4921;43.214;27.936;2023-07-22T09:25:31;100796.53;;;28.18;100.00
9764;BME280;4921;43.214;27.936;2023-07-22T09:27:59;100803.75;;;28.35;100.00
9764;BME280;4921;43.214;27.936;2023-07-22T09:30:28;100815.16;;;28.49;100.00
9764;BME280;4921;43.214;27.936;2023-07-22T09:32:56;100805.44;;;28.59;100.00
9764;BME280;4921;43.214;27.936;2023-07-22T09:35:26;100803.97;;;28.45;100.00
9764;BME280;4921;43.214;27.936;2023-07-22T09:37:53;100801.72;;;28.42;100.00
9764;BME280;4921;43.214;27.936;2023-07-22T09:40:22;100794.34;;;28.38;100.00
9764;BME280;4921;43.214;27.936;2023-07-22T09:42:51;100795.91;;;28.57;100.00
9764;BME280;4921;43.214;27.936;2023-07-22T09:45:19;100790.72;;;28.79;100.00
9764;BME280;4921;43.214;27.936;2023-07-22T09:47:49;100789.06;;;28.89;100.00
9764;BME280;4921;43.214;27.936;2023-07-22T09:50:18;100789.59;;;29.03;100.00
9764;BME280;4921;43.214;27.936;2023-07-22T09:52:48;100795.91;;;28.92;100.00
9764;BME280;4921;43.214;27.936;2023-07-22T09:55:17;100785.31;;;28.67;100.00
9764;BME280;4921;43.214;27.936;2023-07-22T09:57:47;100781.06;;;28.71;100.00
9764;BME280;4921;43.214;27.936;2023-07-22T10:00:15;100771.41;;;28.87;100.00
9764;BME280;4921;43.214;27.936;2023-07-22T10:02:45;100784.69;;;28.88;100.00
9764;BME280;4921;43.214;27.936;2023-07-22T10:05:15;100773.16;;;28.93;100.00
9764;BME280;4921;43.214;27.936;2023-07-22T10:07:46;100777.97;;;28.91;100.00
9764;BME280;4921;43.214;27.936;2023-07-22T10:10:16;100768.53;;;29.16;100.00
9764;BME280;4921;43.214;27.936;2023-07-22T10:12:44;100763.56;;;29.25;100.00
9764;BME280;4921;43.214;27.936;2023-07-22T10:15:13;100755.94;;;29.22;100.00
9764;BME280;4921;43.214;27.936;2023-07-22T10:17:42;100756.66;;;29.46;100.00
9764;BME280;4921;43.214;27.936;2023-07-22T10:20:10;100755.66;;;29.35;100.00
9764;BME280;4921;43.214;27.936;2023-07-22T10:22:42;100760.38;;;29.28;100.00
9764;BME280;4921;43.214;27.936;2023-07-22T10:25:11;100755.94;;;29.22;100.00
9764;BME280;4921;43.214;27.936;2023-07-22T10:27:39;100763.34;;;29.15;100.00
9764;BME280;4921;43.214;27.936;2023-07-22T10:30:08;100762.50;;;29.26;100.00
9764;BME280;4921;43.214;27.936;2023-07-22T10:32:38;100768.94;;;29.36;100.00
9764;BME280;4921;43.214;27.936;2023-07-22T10:35:09;100760.66;;;29.71;100.00
9764;BME280;4921;43.214;27.936;2023-07-22T10:37:39;100752.16;;;29.23;100.00
9764;BME280;4921;43.214;27.936;2023-07-22T10:40:25;100741.78;;;29.48;100.00
9764;BME280;4921;43.214;27.936;2023-07-22T10:42:54;100741.31;;;29.51;100.00
9764;BME280;4921;43.214;27.936;2023-07-22T10:45:25;100755.94;;;29.50;100.00
9764;BME280;4921;43.214;27.936;2023-07-22T10:48:03;100760.81;;;29.65;100.00
9764;BME280;4921;43.214;27.936;2023-07-22T10:50:44;100761.88;;;29.64;100.00
9764;BME280;4921;43.214;27.936;2023-07-22T10:53:14;100759.31;;;29.57;100.00
9764;BME280;4921;43.214;27.936;2023-07-22T10:56:10;100761.94;;;29.24;100.00
9764;BME280;4921;43.214;27.936;2023-07-22T10:59:00;100759.34;;;29.17;100.00
9764;BME280;4921;43.214;27.936;2023-07-22T11:01:33;100744.31;;;28.87;100.00
9764;BME280;4921;43.214;27.936;2023-07-22T11:04:08;100768.31;;;29.06;100.00
9764;BME280;4921;43.214;27.936;2023-07-22T11:06:38;100759.59;;;28.93;100.00
9764;BME280;4921;43.214;27.936;2023-07-22T11:09:05;100757.34;;;29.13;100.00
9764;BME280;4921;43.214;27.936;2023-07-22T11:11:37;100768.56;;;29.05;100.00
9764;BME280;4921;43.214;27.936;2023-07-22T11:14:14;100771.41;;;28.87;100.00
9764;BME280;4921;43.214;27.936;2023-07-22T11:16:42;100755.16;;;28.52;100.00
9764;BME280;4921;43.214;27.936;2023-07-22T11:19:12;100755.03;;;28.47;100.00
9764;BME280;4921;43.214;27.936;2023-07-22T11:21:39;100759.72;;;28.51;100.00
9764;BME280;4921;43.214;27.936;2023-07-22T11:24:07;100753.66;;;28.67;100.00
9764;BME280;4921;43.214;27.936;2023-07-22T11:26:34;100748.81;;;28.70;100.00
9764;BME280;4921;43.214;27.936;2023-07-22T11:29:02;100751.75;;;28.56;100.00
9764;BME280;4921;43.214;27.936;2023-07-22T11:31:32;100747.03;;;28.40;100.00
9764;BME280;4921;43.214;27.936;2023-07-22T11:33:59;100739.16;;;28.62;100.00
9764;BME280;4921;43.214;27.936;2023-07-22T11:36:28;100742.66;;;28.28;100.00
9764;BME280;4921;43.214;27.936;2023-07-22T11:39:01;100734.94;;;28.31;100.00
9764;BME280;4921;43.214;27.936;2023-07-22T11:41:29;100725.16;;;28.65;100.00
9764;BME280;4921;43.214;27.936;2023-07-22T11:43:57;100734.13;;;28.65;100.00
9764;BME280;4921;43.214;27.936;2023-07-22T11:46:24;100731.88;;;28.74;100.00
9764;BME280;4921;43.214;27.936;2023-07-22T11:48:51;100732.06;;;28.96;100.00
9764;BME280;4921;43.214;27.936;2023-07-22T11:51:20;100725.94;;;29.00;100.00
9764;BME280;4921;43.214;27.936;2023-07-22T11:53:50;100734.84;;;29.12;100.00
9764;BME280;4921;43.214;27.936;2023-07-22T11:56:19;100728.28;;;28.97;100.00
9764;BME280;4921;43.214;27.936;2023-07-22T11:58:50;100730.53;;;28.88;100.00
9764;BME280;4921;43.214;27.936;2023-07-22T12:01:18;100726.28;;;28.92;100.00
9764;BME280;4921;43.214;27.936;2023-07-22T12:03:46;100717.63;;;28.79;100.00
9764;BME280;4921;43.214;27.936;2023-07-22T12:06:13;100715.75;;;28.67;100.00
9764;BME280;4921;43.214;27.936;2023-07-22T12:08:45;100723.41;;;28.59;100.00
9764;BME280;4921;43.214;27.936;2023-07-22T12:11:21;100724.47;;;28.46;100.00
9764;BME280;4921;43.214;27.936;2023-07-22T12:13:49;100722.66;;;28.40;100.00
9764;BME280;4921;43.214;27.936;2023-07-22T12:16:30;100726.13;;;28.59;100.00
9764;BME280;4921;43.214;27.936;2023-07-22T12:18:57;100717.50;;;28.50;100.00
9764;BME280;4921;43.214;27.936;2023-07-22T12:21:24;100714.91;;;28.67;100.00
9764;BME280;4921;43.214;27.936;2023-07-22T12:23:53;100716.22;;;28.76;100.00
9764;BME280;4921;43.214;27.936;2023-07-22T12:26:22;100712.69;;;28.64;100.00
9764;BME280;4921;43.214;27.936;2023-07-22T12:28:49;100701.97;;;28.69;100.00
9764;BME280;4921;43.214;27.936;2023-07-22T12:31:16;100708.91;;;28.65;100.00
9764;BME280;4921;43.214;27.936;2023-07-22T12:33:43;100706.09;;;28.72;100.00
9764;BME280;4921;43.214;27.936;2023-07-22T12:36:10;100709.25;;;28.80;100.00
9764;BME280;4921;43.214;27.936;2023-07-22T12:38:37;100708.69;;;28.55;100.00
9764;BME280;4921;43.214;27.936;2023-07-22T12:41:05;100700.47;;;28.61;100.00
9764;BME280;4921;43.214;27.936;2023-07-22T12:43:33;100695.09;;;28.90;100.00
9764;BME280;4921;43.214;27.936;2023-07-22T12:46:00;100694.47;;;28.99;100.00
9764;BME280;4921;43.214;27.936;2023-07-22T12:48:27;100696.06;;;29.12;100.00
9764;BME280;4921;43.214;27.936;2023-07-22T12:50:54;100700.72;;;29.00;100.00
9764;BME280;4921;43.214;27.936;2023-07-22T12:53:21;100700.03;;;28.93;100.00
9764;BME280;4921;43.214;27.936;2023-07-22T12:55:48;100708.50;;;28.96;100.00